createdAt,value
2019-04-11T00:00:31.375Z,10.86
2019-04-11T00:01:46.937Z,10.83
2019-04-11T00:02:51.141Z,10.81
2019-04-11T00:03:59.860Z,10.79
2019-04-11T00:05:08.499Z,10.81
2019-04-11T00:06:17.260Z,10.81
2019-04-11T00:07:25.584Z,10.81
2019-04-11T00:08:35.513Z,10.81
2019-04-11T00:09:44.935Z,10.81
2019-04-11T00:10:53.545Z,10.80
2019-04-11T00:12:02.056Z,10.78
2019-04-11T00:13:19.793Z,10.79
2019-04-11T00:14:20.002Z,10.79
2019-04-11T00:15:28.763Z,10.78
2019-04-11T00:16:37.357Z,10.78
2019-04-11T00:17:46.016Z,10.78
2019-04-11T00:18:54.737Z,10.73
2019-04-11T00:20:02.787Z,10.71
2019-04-11T00:21:10.825Z,10.69
2019-04-11T00:22:19.472Z,10.67
2019-04-11T00:23:27.768Z,10.67
2019-04-11T00:24:36.693Z,10.68
2019-04-11T00:25:44.804Z,10.68
2019-04-11T00:26:52.805Z,10.67
2019-04-11T00:28:01.582Z,10.68
2019-04-11T00:29:10.136Z,10.69
2019-04-11T00:30:19.830Z,10.69
2019-04-11T00:31:28.564Z,10.70
2019-04-11T00:32:37.885Z,10.71
2019-04-11T00:33:46.652Z,10.69
2019-04-11T00:34:55.310Z,10.68
2019-04-11T00:36:04.198Z,10.66
2019-04-11T00:37:12.766Z,10.64
2019-04-11T00:38:21.440Z,10.63
2019-04-11T00:39:29.971Z,10.62
2019-04-11T00:40:39.440Z,10.59
2019-04-11T00:41:48.269Z,10.58
2019-04-11T00:42:56.787Z,10.51
2019-04-11T00:44:06.369Z,10.45
2019-04-11T00:45:15.896Z,10.42
2019-04-11T00:46:24.592Z,10.41
2019-04-11T00:47:33.166Z,10.40
2019-04-11T00:48:41.829Z,10.39
2019-04-11T00:49:50.460Z,10.40
2019-04-11T00:50:59.319Z,10.39
2019-04-11T00:52:08.677Z,10.39
2019-04-11T00:53:16.742Z,10.40
2019-04-11T00:54:24.834Z,10.37
2019-04-11T00:55:32.938Z,10.34
2019-04-11T00:56:42.276Z,10.34
2019-04-11T00:57:50.352Z,10.32
2019-04-11T00:58:58.439Z,10.30
2019-04-11T01:00:09.321Z,10.31
2019-04-11T01:01:17.701Z,10.32
2019-04-11T01:02:26.319Z,10.33
2019-04-11T01:03:35.921Z,10.34
2019-04-11T01:04:45.338Z,10.30
2019-04-11T01:05:53.996Z,10.30
2019-04-11T01:07:03.109Z,10.32
2019-04-11T01:08:11.533Z,10.30
2019-04-11T01:09:20.108Z,10.31
2019-04-11T01:10:28.324Z,10.32
2019-04-11T01:11:37.878Z,10.34
2019-04-11T01:12:46.933Z,10.34
2019-04-11T01:13:55.755Z,10.36
2019-04-11T01:15:04.965Z,10.37
2019-04-11T01:16:17.852Z,10.38
2019-04-11T01:17:26.043Z,10.37
2019-04-11T01:18:34.511Z,10.37
2019-04-11T01:19:42.764Z,10.39
2019-04-11T01:20:51.515Z,10.37
2019-04-11T01:22:01.162Z,10.35
2019-04-11T01:23:09.379Z,10.36
2019-04-11T01:24:17.773Z,10.34
2019-04-11T01:25:25.970Z,10.33
2019-04-11T01:26:35.122Z,10.31
2019-04-11T01:27:43.796Z,10.31
2019-04-11T01:28:52.535Z,10.30
2019-04-11T01:30:02.364Z,10.29
2019-04-11T01:31:15.629Z,10.31
2019-04-11T01:32:24.454Z,10.32
2019-04-11T01:33:32.428Z,10.31
2019-04-11T01:34:40.552Z,10.28
2019-04-11T01:35:49.819Z,10.27
2019-04-11T01:36:59.528Z,10.27
2019-04-11T01:38:08.289Z,10.25
2019-04-11T01:39:29.953Z,10.28
2019-04-11T01:40:38.267Z,10.30
2019-04-11T01:41:46.754Z,10.32
2019-04-11T01:42:55.504Z,10.31
2019-04-11T01:44:05.895Z,10.30
2019-04-11T01:45:14.830Z,10.26
2019-04-11T01:46:22.816Z,10.25
2019-04-11T01:47:35.981Z,10.22
2019-04-11T01:48:50.004Z,10.20
2019-04-11T01:49:58.728Z,10.20
2019-04-11T01:51:07.544Z,10.19
2019-04-11T01:52:15.423Z,10.15
2019-04-11T01:53:24.697Z,10.14
2019-04-11T01:54:32.717Z,10.12
2019-04-11T01:55:40.944Z,10.08
2019-04-11T01:56:49.524Z,10.04
2019-04-11T01:57:58.283Z,10.00
2019-04-11T01:59:06.992Z,9.98
2019-04-11T02:00:18.152Z,9.98
2019-04-11T02:01:30.670Z,10.01
2019-04-11T02:02:42.339Z,9.99
2019-04-11T02:03:55.321Z,9.98
2019-04-11T02:05:05.268Z,9.98
2019-04-11T02:06:13.888Z,9.95
2019-04-11T02:07:22.597Z,9.95
2019-04-11T02:08:31.297Z,9.97
2019-04-11T02:09:40.155Z,9.97
2019-04-11T02:10:48.740Z,9.97
2019-04-11T02:11:56.762Z,9.97
2019-04-11T02:13:05.712Z,9.93
2019-04-11T02:14:16.380Z,9.90
2019-04-11T02:15:25.272Z,9.89
2019-04-11T02:16:34.799Z,9.86
2019-04-11T02:17:43.249Z,9.85
2019-04-11T02:18:51.920Z,9.77
2019-04-11T02:20:00.683Z,9.73
2019-04-11T02:21:09.406Z,9.70
2019-04-11T02:22:24.981Z,9.66
2019-04-11T02:23:51.140Z,9.66
2019-04-11T02:25:00.821Z,9.63
2019-04-11T02:26:16.783Z,9.62
2019-04-11T02:27:27.342Z,9.61
2019-04-11T02:28:35.358Z,9.59
2019-04-11T02:29:44.731Z,9.57
2019-04-11T02:30:56.235Z,9.57
2019-04-11T02:32:05.497Z,9.54
2019-04-11T02:33:15.880Z,9.51
2019-04-11T02:34:23.682Z,9.50
2019-04-11T02:35:31.703Z,9.49
2019-04-11T02:36:40.541Z,9.47
2019-04-11T02:37:51.983Z,9.49
2019-04-11T02:39:05.779Z,9.50
2019-04-11T02:40:11.145Z,9.51
2019-04-11T02:41:20.988Z,9.52
2019-04-11T02:42:30.718Z,9.55
2019-04-11T02:43:42.144Z,9.56
2019-04-11T02:45:05.924Z,9.57
2019-04-11T02:46:11.755Z,9.57
2019-04-11T02:47:13.605Z,9.54
2019-04-11T02:48:20.374Z,9.52
2019-04-11T02:49:28.305Z,9.50
2019-04-11T02:50:38.694Z,9.48
2019-04-11T02:51:47.326Z,9.48
2019-04-11T02:52:58.476Z,9.48
2019-04-11T02:54:07.748Z,9.49
2019-04-11T02:55:17.107Z,9.51
2019-04-11T02:56:25.815Z,9.52
2019-04-11T02:57:36.336Z,9.54
2019-04-11T02:58:46.329Z,9.55
2019-04-11T02:59:56.031Z,9.57
2019-04-11T03:01:06.981Z,9.49
2019-04-11T03:02:17.555Z,9.48
2019-04-11T03:03:25.317Z,9.46
2019-04-11T03:04:34.754Z,9.44
2019-04-11T03:05:44.206Z,9.43
2019-04-11T03:06:53.236Z,9.42
2019-04-11T03:08:06.615Z,9.42
2019-04-11T03:09:13.163Z,9.42
2019-04-11T03:10:21.430Z,9.43
2019-04-11T03:11:30.384Z,9.45
2019-04-11T03:12:40.536Z,9.38
2019-04-11T03:13:54.693Z,9.35
2019-04-11T03:15:22.744Z,9.29
2019-04-11T03:16:29.620Z,9.26
2019-04-11T03:17:28.794Z,9.22
2019-04-11T03:18:53.441Z,9.16
2019-04-11T03:19:58.163Z,9.13
2019-04-11T03:20:57.774Z,9.11
2019-04-11T03:22:03.488Z,9.10
2019-04-11T03:23:14.529Z,9.08
2019-04-11T03:24:24.183Z,9.06
2019-04-11T03:25:33.015Z,9.06
2019-04-11T03:26:43.395Z,9.05
2019-04-11T03:27:53.753Z,9.08
2019-04-11T03:29:03.601Z,9.07
2019-04-11T03:30:16.358Z,9.06
2019-04-11T03:33:17.324Z,9.06
2019-04-11T03:34:24.276Z,9.06
2019-04-11T03:35:45.760Z,9.06
2019-04-11T03:37:38.655Z,9.08
2019-04-11T03:39:02.504Z,9.08
2019-04-11T03:40:11.446Z,9.09
2019-04-11T03:41:20.320Z,9.07
2019-04-11T03:42:29.960Z,9.05
2019-04-11T03:43:34.706Z,9.05
2019-04-11T03:44:37.555Z,9.04
2019-04-11T03:46:01.430Z,9.03
2019-04-11T03:47:08.353Z,9.02
2019-04-11T03:48:12.366Z,9.02
2019-04-11T03:49:20.989Z,9.01
2019-04-11T03:50:25.156Z,8.99
2019-04-11T03:51:31.329Z,8.97
2019-04-11T03:52:40.785Z,8.92
2019-04-11T03:54:05.129Z,8.88
2019-04-11T03:55:15.288Z,8.85
2019-04-11T03:56:24.603Z,8.81
2019-04-11T03:57:34.316Z,8.76
2019-04-11T03:58:43.763Z,8.72
2019-04-11T03:59:52.358Z,8.70
2019-04-11T04:01:03.439Z,8.66
2019-04-11T04:02:12.969Z,8.64
2019-04-11T04:03:22.479Z,8.66
2019-04-11T04:04:30.891Z,8.68
2019-04-11T04:05:39.714Z,8.68
2019-04-11T04:06:49.904Z,8.68
2019-04-11T04:08:00.145Z,8.72
2019-04-11T04:09:10.762Z,8.74
2019-04-11T04:10:20.528Z,8.74
2019-04-11T04:11:31.611Z,8.74
2019-04-11T04:12:40.302Z,8.72
2019-04-11T04:13:55.782Z,8.71
2019-04-11T04:15:36.501Z,8.71
2019-04-11T04:16:38.564Z,8.68
2019-04-11T04:17:45.483Z,8.65
2019-04-11T04:18:56.518Z,8.56
2019-04-11T04:20:11.040Z,8.54
2019-04-11T04:21:22.550Z,8.50
2019-04-11T04:22:50.028Z,8.47
2019-04-11T04:24:01.386Z,8.44
2019-04-11T04:25:10.291Z,8.40
2019-04-11T04:26:19.233Z,8.37
2019-04-11T04:27:30.349Z,8.40
2019-04-11T04:28:40.669Z,8.38
2019-04-11T04:29:51.854Z,8.38
2019-04-11T04:30:58.057Z,8.39
2019-04-11T04:32:08.255Z,8.38
2019-04-11T04:33:17.099Z,8.36
2019-04-11T04:34:26.102Z,8.36
2019-04-11T04:35:36.206Z,8.34
2019-04-11T04:36:44.125Z,8.34
2019-04-11T04:37:54.409Z,8.32
2019-04-11T04:39:04.184Z,8.30
2019-04-11T04:40:26.932Z,8.27
2019-04-11T04:41:35.116Z,8.30
2019-04-11T04:42:40.236Z,8.30
2019-04-11T04:43:44.461Z,8.33
2019-04-11T04:44:53.866Z,8.36
2019-04-11T04:46:20.396Z,8.41
2019-04-11T04:47:21.040Z,8.45
2019-04-11T04:48:24.340Z,8.46
2019-04-11T04:49:32.334Z,8.49
2019-04-11T04:50:42.193Z,8.51
2019-04-11T04:51:51.147Z,8.54
2019-04-11T04:53:00.921Z,8.56
2019-04-11T04:54:10.090Z,8.61
2019-04-11T04:55:19.412Z,8.63
2019-04-11T04:56:31.599Z,8.66
2019-04-11T04:57:37.888Z,8.69
2019-04-11T04:58:46.719Z,8.69
2019-04-11T04:59:56.351Z,8.69
2019-04-11T05:01:06.817Z,8.67
2019-04-11T05:02:15.215Z,8.66
2019-04-11T05:03:24.534Z,8.65
2019-04-11T05:04:33.765Z,8.64
2019-04-11T05:05:42.519Z,8.64
2019-04-11T05:06:52.915Z,8.62
2019-04-11T05:08:02.736Z,8.61
2019-04-11T05:09:12.833Z,8.60
2019-04-11T05:10:22.172Z,8.61
2019-04-11T05:11:30.661Z,8.65
2019-04-11T05:12:38.924Z,8.64
2019-04-11T05:13:49.258Z,8.65
2019-04-11T05:14:56.407Z,8.65
2019-04-11T05:16:16.377Z,8.67
2019-04-11T05:17:14.947Z,8.67
2019-04-11T05:18:23.714Z,8.68
2019-04-11T05:19:32.068Z,8.67
2019-04-11T05:20:40.723Z,8.63
2019-04-11T05:21:49.828Z,8.62
2019-04-11T05:22:58.188Z,8.60
2019-04-11T05:24:06.317Z,8.58
2019-04-11T05:25:22.799Z,8.53
2019-04-11T05:26:31.407Z,8.51
2019-04-11T05:27:39.817Z,8.50
2019-04-11T05:28:48.825Z,8.46
2019-04-11T05:29:57.233Z,8.46
2019-04-11T05:31:06.047Z,8.45
2019-04-11T05:32:14.148Z,8.42
2019-04-11T05:33:23.203Z,8.39
2019-04-11T05:34:31.440Z,8.40
2019-04-11T05:35:39.601Z,8.40
2019-04-11T05:36:47.664Z,8.41
2019-04-11T05:37:55.821Z,8.39
2019-04-11T05:39:06.632Z,8.40
2019-04-11T05:40:15.272Z,8.40
2019-04-11T05:41:24.616Z,8.38
2019-04-11T05:42:33.389Z,8.36
2019-04-11T05:43:41.853Z,8.35
2019-04-11T05:44:51.455Z,8.34
2019-04-11T05:46:00.239Z,8.33
2019-04-11T05:47:09.016Z,8.34
2019-04-11T05:48:30.703Z,8.33
2019-04-11T05:49:47.510Z,8.33
2019-04-11T05:50:56.250Z,8.32
2019-04-11T05:52:06.350Z,8.32
2019-04-11T05:53:14.207Z,8.31
2019-04-11T05:54:22.302Z,8.29
2019-04-11T05:55:32.112Z,8.30
2019-04-11T05:56:40.203Z,8.30
2019-04-11T05:57:48.388Z,8.28
2019-04-11T05:58:57.884Z,8.26
2019-04-11T06:00:09.823Z,8.26
2019-04-11T06:01:22.486Z,8.25
2019-04-11T06:02:30.230Z,8.26
2019-04-11T06:03:40.999Z,8.29
2019-04-11T06:04:55.923Z,8.32
2019-04-11T06:06:10.844Z,8.31
2019-04-11T06:07:20.975Z,8.34
2019-04-11T06:08:30.747Z,8.36
2019-04-11T06:09:41.676Z,8.36
2019-04-11T06:10:52.527Z,8.36
2019-04-11T06:12:05.298Z,8.36
2019-04-11T06:13:20.897Z,8.37
2019-04-11T06:14:45.669Z,8.36
2019-04-11T06:15:56.713Z,8.35
2019-04-11T06:17:07.281Z,8.33
2019-04-11T06:18:37.400Z,8.33
2019-04-11T06:19:43.863Z,8.32
2019-04-11T06:21:05.397Z,8.29
2019-04-11T06:22:14.817Z,8.28
2019-04-11T06:23:23.476Z,8.28
2019-04-11T06:24:42.634Z,8.27
2019-04-11T06:25:53.356Z,8.25
2019-04-11T06:27:01.421Z,8.20
2019-04-11T06:28:11.748Z,8.16
2019-04-11T06:29:26.233Z,8.15
2019-04-11T06:30:40.196Z,8.12
2019-04-11T06:32:06.120Z,8.16
2019-04-11T06:33:16.495Z,8.17
2019-04-11T06:34:26.929Z,8.19
2019-04-11T06:35:52.658Z,8.21
2019-04-11T06:37:13.794Z,8.24
2019-04-11T06:38:25.475Z,8.28
2019-04-11T06:39:51.577Z,8.27
2019-04-11T06:41:01.985Z,8.26
2019-04-11T06:42:25.434Z,8.25
2019-04-11T06:43:44.561Z,8.24
2019-04-11T06:44:57.048Z,8.24
2019-04-11T06:46:07.095Z,8.23
2019-04-11T06:47:34.592Z,8.23
2019-04-11T06:49:02.625Z,8.23
2019-04-11T06:50:17.354Z,8.22
2019-04-11T06:51:30.271Z,8.16
2019-04-11T06:52:41.212Z,8.14
2019-04-11T06:53:52.601Z,8.14
2019-04-11T06:55:06.713Z,8.12
2019-04-11T06:56:23.240Z,8.13
2019-04-11T06:57:36.272Z,8.14
2019-04-11T06:58:52.008Z,8.12
2019-04-11T07:00:00.920Z,8.10
2019-04-11T07:01:13.989Z,8.07
2019-04-11T07:02:25.028Z,8.06
2019-04-11T07:03:34.822Z,8.04
2019-04-11T07:04:44.594Z,8.06
2019-04-11T07:05:53.196Z,8.05
2019-04-11T07:07:04.396Z,8.02
2019-04-11T07:08:13.813Z,8.02
2019-04-11T07:09:28.704Z,8.00
2019-04-11T07:10:38.722Z,8.00
2019-04-11T07:11:54.393Z,8.02
2019-04-11T07:13:04.184Z,8.00
2019-04-11T07:14:33.223Z,8.00
2019-04-11T07:17:34.345Z,7.97
2019-04-11T07:18:44.246Z,8.02
2019-04-11T07:20:10.934Z,8.02
2019-04-11T07:21:19.402Z,8.02
2019-04-11T07:22:45.085Z,8.05
2019-04-11T07:24:11.796Z,8.06
2019-04-11T07:25:22.379Z,8.09
2019-04-11T07:26:33.008Z,8.12
2019-04-11T07:27:42.977Z,8.15
2019-04-11T07:28:54.273Z,8.15
2019-04-11T07:30:22.753Z,8.14
2019-04-11T07:31:44.192Z,8.14
2019-04-11T07:32:55.002Z,8.17
2019-04-11T07:34:06.197Z,8.19
2019-04-11T07:35:33.990Z,8.20
2019-04-11T07:36:44.330Z,8.23
2019-04-11T07:37:53.334Z,8.23
2019-04-11T07:39:07.896Z,8.21
2019-04-11T07:40:18.449Z,8.23
2019-04-11T07:41:39.037Z,8.21
2019-04-11T07:42:53.053Z,8.18
2019-04-11T07:44:02.396Z,8.15
2019-04-11T07:45:29.905Z,8.15
2019-04-11T07:46:42.984Z,8.13
2019-04-11T07:47:56.965Z,8.15
2019-04-11T07:49:05.980Z,8.15
2019-04-11T07:50:16.781Z,8.11
2019-04-11T07:51:25.356Z,8.09
2019-04-11T07:52:35.930Z,8.06
2019-04-11T07:53:48.067Z,8.05
2019-04-11T07:54:57.004Z,8.01
2019-04-11T07:56:07.697Z,8.01
2019-04-11T07:57:30.626Z,8.01
2019-04-11T07:58:46.385Z,8.02
2019-04-11T07:59:54.091Z,8.03
2019-04-11T08:01:14.718Z,8.05
2019-04-11T08:02:40.907Z,8.05
2019-04-11T08:04:06.011Z,7.98
2019-04-11T08:05:32.434Z,7.99
2019-04-11T08:06:56.307Z,7.96
2019-04-11T08:08:09.152Z,7.92
2019-04-11T08:09:27.498Z,7.90
2019-04-11T08:10:46.090Z,7.91
2019-04-11T08:11:56.175Z,7.90
2019-04-11T08:13:05.975Z,7.90
2019-04-11T08:14:16.169Z,7.89
2019-04-11T08:15:42.536Z,7.87
2019-04-11T08:17:09.349Z,7.84
2019-04-11T08:18:35.344Z,7.81
2019-04-11T08:19:55.375Z,7.81
2019-04-11T08:21:21.878Z,7.79
2019-04-11T08:22:37.532Z,7.80
2019-04-11T08:23:47.758Z,7.80
2019-04-11T08:25:05.037Z,7.80
2019-04-11T08:26:30.776Z,7.81
2019-04-11T08:28:00.242Z,7.81
2019-04-11T08:29:08.985Z,7.79
2019-04-11T08:30:14.922Z,7.78
2019-04-11T08:31:28.926Z,7.80
2019-04-11T08:32:38.521Z,7.78
2019-04-11T08:33:46.786Z,7.76
2019-04-11T08:35:13.297Z,7.76
2019-04-11T08:36:24.159Z,7.76
2019-04-11T08:37:36.264Z,7.74
2019-04-11T08:38:44.757Z,7.74
2019-04-11T08:39:53.924Z,7.76
2019-04-11T08:41:03.082Z,7.77
2019-04-11T08:42:21.302Z,7.76
2019-04-11T08:43:37.310Z,7.78
2019-04-11T08:44:45.521Z,7.80
2019-04-11T08:46:06.619Z,7.82
2019-04-11T08:47:16.145Z,7.81
2019-04-11T08:48:24.687Z,7.78
2019-04-11T08:49:40.146Z,7.76
2019-04-11T08:50:50.429Z,7.76
2019-04-11T08:52:00.143Z,7.72
2019-04-11T08:53:18.461Z,7.71
2019-04-11T08:54:26.317Z,7.73
2019-04-11T08:55:47.659Z,7.73
2019-04-11T08:56:45.903Z,7.75
2019-04-11T08:57:56.115Z,7.76
2019-04-11T08:59:11.382Z,7.77
2019-04-11T09:00:19.421Z,7.77
2019-04-11T09:01:27.731Z,7.74
2019-04-11T09:02:37.405Z,7.74
2019-04-11T09:04:07.398Z,7.72
2019-04-11T09:05:18.234Z,7.72
2019-04-11T09:06:28.336Z,7.71
2019-04-11T09:07:41.476Z,7.70
2019-04-11T09:09:09.073Z,7.69
2019-04-11T09:10:35.929Z,7.69
2019-04-11T09:11:48.992Z,7.67
2019-04-11T09:12:58.811Z,7.66
2019-04-11T09:14:13.716Z,7.66
2019-04-11T09:15:39.577Z,7.67
2019-04-11T09:16:54.069Z,7.69
2019-04-11T09:18:06.151Z,7.69
2019-04-11T09:19:14.678Z,7.69
2019-04-11T09:20:31.801Z,7.68
2019-04-11T09:21:58.332Z,7.67
2019-04-11T09:23:06.496Z,7.64
2019-04-11T09:24:16.727Z,7.62
2019-04-11T09:25:41.820Z,7.60
2019-04-11T09:27:08.704Z,7.61
2019-04-11T09:28:19.567Z,7.62
2019-04-11T09:29:35.121Z,7.60
2019-04-11T09:31:06.230Z,7.59
2019-04-11T09:32:20.461Z,7.57
2019-04-11T09:33:33.152Z,7.55
2019-04-11T09:34:44.041Z,7.55
2019-04-11T09:35:59.757Z,7.52
2019-04-11T09:37:12.410Z,7.52
2019-04-11T09:38:20.833Z,7.53
2019-04-11T09:39:39.334Z,7.55
2019-04-11T09:40:50.133Z,7.56
2019-04-11T09:42:20.214Z,7.59
2019-04-11T09:43:31.957Z,7.59
2019-04-11T09:44:41.805Z,7.60
2019-04-11T09:46:01.954Z,7.63
2019-04-11T09:47:22.246Z,7.63
2019-04-11T09:48:38.031Z,7.63
2019-04-11T09:49:57.975Z,7.64
2019-04-11T09:51:11.496Z,7.66
2019-04-11T09:52:21.346Z,7.70
2019-04-11T09:53:30.325Z,7.70
2019-04-11T09:54:52.633Z,7.72
2019-04-11T09:56:00.588Z,7.73
2019-04-11T09:57:28.955Z,7.74
2019-04-11T09:58:37.913Z,7.76
2019-04-11T09:59:53.903Z,7.76
2019-04-11T10:01:12.505Z,7.75
2019-04-11T10:02:20.967Z,7.74
2019-04-11T10:03:30.718Z,7.74
2019-04-11T10:04:41.697Z,7.72
2019-04-11T10:05:54.642Z,7.73
2019-04-11T10:07:21.711Z,7.72
2019-04-11T10:08:33.067Z,7.73
2019-04-11T10:09:48.586Z,7.74
2019-04-11T10:11:09.987Z,7.73
2019-04-11T10:12:36.118Z,7.77
2019-04-11T10:13:55.388Z,7.77
2019-04-11T10:15:05.101Z,7.78
2019-04-11T10:16:15.858Z,7.78
2019-04-11T10:17:26.303Z,7.80
2019-04-11T10:18:45.284Z,7.79
2019-04-11T10:19:54.132Z,7.80
2019-04-11T10:21:02.482Z,7.79
2019-04-11T10:22:13.123Z,7.81
2019-04-11T10:23:23.027Z,7.81
2019-04-11T10:24:38.886Z,7.79
2019-04-11T10:25:47.634Z,7.78
2019-04-11T10:26:58.460Z,7.78
2019-04-11T10:28:09.447Z,7.81
2019-04-11T10:29:19.261Z,7.83
2019-04-11T10:30:33.541Z,7.85
2019-04-11T10:31:44.364Z,7.89
2019-04-11T10:32:55.316Z,7.89
2019-04-11T10:34:43.846Z,7.92
2019-04-11T10:36:12.922Z,7.95
2019-04-11T10:37:47.707Z,8.00
2019-04-11T10:39:23.378Z,8.01
2019-04-11T10:40:56.660Z,7.98
2019-04-11T10:42:12.973Z,8.01
2019-04-11T10:43:22.385Z,7.99
2019-04-11T10:44:38.933Z,7.95
2019-04-11T10:45:59.232Z,7.94
2019-04-11T10:47:09.937Z,7.94
2019-04-11T10:48:32.581Z,7.95
2019-04-11T10:49:36.585Z,7.96
2019-04-11T10:50:46.635Z,7.97
2019-04-11T10:52:00.344Z,7.99
2019-04-11T10:53:08.958Z,8.02
2019-04-11T10:54:16.897Z,8.03
2019-04-11T10:55:27.375Z,8.07
2019-04-11T10:56:53.685Z,8.07
2019-04-11T10:58:02.542Z,8.11
2019-04-11T10:59:13.245Z,8.14
2019-04-11T11:00:37.552Z,8.15
2019-04-11T11:02:04.381Z,8.15
2019-04-11T11:03:14.270Z,8.16
2019-04-11T11:04:23.992Z,8.16
2019-04-11T11:05:34.618Z,8.19
2019-04-11T11:06:45.093Z,8.21
2019-04-11T11:07:55.439Z,8.24
2019-04-11T11:09:03.942Z,8.28
2019-04-11T11:10:13.883Z,8.29
2019-04-11T11:11:40.763Z,8.32
2019-04-11T11:13:09.715Z,8.33
2019-04-11T11:14:22.779Z,8.35
2019-04-11T11:15:33.791Z,8.37
2019-04-11T11:16:46.994Z,8.39
2019-04-11T11:18:27.210Z,8.38
2019-04-11T11:19:40.927Z,8.42
2019-04-11T11:20:41.499Z,8.42
2019-04-11T11:21:47.848Z,8.42
2019-04-11T11:22:56.052Z,8.42
2019-04-11T11:24:22.218Z,8.41
2019-04-11T11:25:39.245Z,8.41
2019-04-11T11:26:47.667Z,8.43
2019-04-11T11:27:55.823Z,8.41
2019-04-11T11:29:14.642Z,8.43
2019-04-11T11:30:31.827Z,8.45
2019-04-11T11:31:42.781Z,8.47
2019-04-11T11:32:51.754Z,8.50
2019-04-11T11:33:59.938Z,8.54
2019-04-11T11:35:10.774Z,8.55
2019-04-11T11:36:32.074Z,8.60
2019-04-11T11:37:49.266Z,8.62
2019-04-11T11:39:17.449Z,8.65
2019-04-11T11:40:44.693Z,8.64
2019-04-11T11:42:10.664Z,8.64
2019-04-11T11:43:21.146Z,8.64
2019-04-11T11:44:34.988Z,8.62
2019-04-11T11:45:51.764Z,8.60
2019-04-11T11:47:15.509Z,8.59
2019-04-11T11:48:39.716Z,8.58
2019-04-11T11:49:55.638Z,8.59
2019-04-11T11:51:01.203Z,8.61
2019-04-11T11:52:31.904Z,8.63
2019-04-11T11:53:37.166Z,8.65
2019-04-11T11:54:46.426Z,8.68
2019-04-11T11:55:55.722Z,8.67
2019-04-11T11:57:06.540Z,8.69
2019-04-11T11:58:31.399Z,8.70
2019-04-11T11:59:41.302Z,8.70
2019-04-11T12:00:53.889Z,8.69
2019-04-11T12:02:02.331Z,8.69
2019-04-11T12:03:12.901Z,8.68
2019-04-11T12:04:39.354Z,8.69
2019-04-11T12:05:51.887Z,8.68
2019-04-11T12:07:03.727Z,8.71
2019-04-11T12:08:15.357Z,8.72
2019-04-11T12:09:32.089Z,8.74
2019-04-11T12:10:42.011Z,8.74
2019-04-11T12:11:55.513Z,8.77
2019-04-11T12:13:13.342Z,8.76
2019-04-11T12:14:28.100Z,8.75
2019-04-11T12:15:55.761Z,8.75
2019-04-11T12:17:06.712Z,8.77
2019-04-11T12:18:32.941Z,8.78
2019-04-11T12:19:52.367Z,8.79
2019-04-11T12:20:57.155Z,8.81
2019-04-11T12:22:04.325Z,8.84
2019-04-11T12:23:26.126Z,8.85
2019-04-11T12:24:45.100Z,8.86
2019-04-11T12:25:53.581Z,8.83
2019-04-11T12:27:13.218Z,8.81
2019-04-11T12:28:23.904Z,8.83
2019-04-11T12:29:32.249Z,8.83
2019-04-11T12:30:40.332Z,8.84
2019-04-11T12:31:50.238Z,8.86
2019-04-11T12:32:59.222Z,8.85
2019-04-11T12:34:26.030Z,8.85
2019-04-11T12:35:52.672Z,8.85
2019-04-11T12:37:02.114Z,8.86
2019-04-11T12:38:09.963Z,8.85
2019-04-11T12:39:28.964Z,8.84
2019-04-11T12:40:55.011Z,8.85
2019-04-11T12:42:13.472Z,8.86
2019-04-11T12:43:21.763Z,8.87
2019-04-11T12:44:30.368Z,8.90
2019-04-11T12:45:56.308Z,8.93
2019-04-11T12:47:21.076Z,8.96
2019-04-11T12:48:30.832Z,8.97
2019-04-11T12:49:38.500Z,8.96
2019-04-11T12:51:01.525Z,8.96
2019-04-11T12:52:24.543Z,8.97
2019-04-11T12:53:32.571Z,8.97
2019-04-11T12:54:42.263Z,8.99
2019-04-11T12:55:55.123Z,9.01
2019-04-11T12:57:15.095Z,9.01
2019-04-11T12:58:27.413Z,9.01
2019-04-11T12:59:35.511Z,8.97
2019-04-11T13:01:04.083Z,8.96
2019-04-11T13:02:20.052Z,8.93
2019-04-11T13:03:29.502Z,8.93
2019-04-11T13:04:37.952Z,8.93
2019-04-11T13:05:47.612Z,8.92
2019-04-11T13:07:13.976Z,8.92
2019-04-11T13:08:39.966Z,8.92
2019-04-11T13:09:53.096Z,8.93
2019-04-11T13:11:01.251Z,8.96
2019-04-11T13:12:26.223Z,8.96
2019-04-11T13:13:52.012Z,8.96
2019-04-11T13:15:08.791Z,8.97
2019-04-11T13:16:17.099Z,8.94
2019-04-11T13:17:31.002Z,8.94
2019-04-11T13:18:57.281Z,8.93
2019-04-11T13:20:14.815Z,8.93
2019-04-11T13:21:27.599Z,8.95
2019-04-11T13:22:35.490Z,8.96
2019-04-11T13:23:55.622Z,8.98
2019-04-11T13:25:09.176Z,8.98
2019-04-11T13:26:35.377Z,9.01
2019-04-11T13:27:44.838Z,9.01
2019-04-11T13:29:10.593Z,9.04
2019-04-11T13:30:21.709Z,9.04
2019-04-11T13:31:40.641Z,9.01
2019-04-11T13:32:50.181Z,9.00
2019-04-11T13:33:59.794Z,8.99
2019-04-11T13:35:18.132Z,8.98
2019-04-11T13:36:44.267Z,8.95
2019-04-11T13:37:56.936Z,8.93
2019-04-11T13:39:06.740Z,8.91
2019-04-11T13:40:23.368Z,8.89
2019-04-11T13:41:31.077Z,8.87
2019-04-11T13:42:56.904Z,8.83
2019-04-11T13:44:06.849Z,8.80
2019-04-11T13:45:15.531Z,8.81
2019-04-11T13:46:26.394Z,8.82
2019-04-11T13:47:40.355Z,8.84
2019-04-11T13:48:54.119Z,8.84
2019-04-11T13:50:04.106Z,8.83
2019-04-11T13:51:13.908Z,8.82
2019-04-11T13:52:24.267Z,8.82
2019-04-11T13:53:50.122Z,8.81
2019-04-11T13:55:15.151Z,8.83
2019-04-11T13:56:25.386Z,8.83
2019-04-11T13:57:51.234Z,8.82
2019-04-11T13:59:01.198Z,8.82
2019-04-11T14:00:27.795Z,8.83
2019-04-11T14:01:37.398Z,8.82
2019-04-11T14:02:51.108Z,8.86
2019-04-11T14:04:08.985Z,8.89
2019-04-11T14:05:28.261Z,8.91
2019-04-11T14:06:36.237Z,8.93
2019-04-11T14:07:45.828Z,8.95
2019-04-11T14:08:55.549Z,8.97
2019-04-11T14:10:05.400Z,8.99
2019-04-11T14:11:17.706Z,8.97
2019-04-11T14:12:26.365Z,8.97
2019-04-11T14:13:36.042Z,8.97
2019-04-11T14:14:44.372Z,8.99
2019-04-11T14:16:10.743Z,9.01
2019-04-11T14:17:23.438Z,9.01
2019-04-11T14:18:33.359Z,8.98
2019-04-11T14:19:56.425Z,8.96
2019-04-11T14:21:05.937Z,8.96
2019-04-11T14:22:15.399Z,8.98
2019-04-11T14:23:23.005Z,8.99
2019-04-11T14:24:33.327Z,9.02
2019-04-11T14:25:41.233Z,9.03
2019-04-11T14:26:52.175Z,9.04
2019-04-11T14:28:01.632Z,9.03
2019-04-11T14:29:20.566Z,9.02
2019-04-11T14:30:51.519Z,9.05
2019-04-11T14:32:00.923Z,9.05
2019-04-11T14:33:08.886Z,9.07
2019-04-11T14:34:34.631Z,9.06
2019-04-11T14:35:51.438Z,9.07
2019-04-11T14:37:04.669Z,9.09
2019-04-11T14:38:16.794Z,9.08
2019-04-11T14:39:29.437Z,9.11
2019-04-11T14:40:41.995Z,9.11
2019-04-11T14:41:59.798Z,9.11
2019-04-11T14:43:26.019Z,9.13
2019-04-11T14:44:35.913Z,9.11
2019-04-11T14:45:45.569Z,9.08
2019-04-11T14:47:08.942Z,9.09
2019-04-11T14:48:34.944Z,9.02
2019-04-11T14:49:44.052Z,8.99
2019-04-11T14:51:00.603Z,8.96
2019-04-11T14:52:10.212Z,8.92
2019-04-11T14:53:23.413Z,8.90
2019-04-11T14:54:39.027Z,8.86
2019-04-11T14:55:49.015Z,8.86
2019-04-11T14:57:14.484Z,8.86
2019-04-11T14:58:33.827Z,8.86
2019-04-11T14:59:54.027Z,8.86
2019-04-11T15:01:02.671Z,8.88
2019-04-11T15:02:21.227Z,8.87
2019-04-11T15:03:33.831Z,8.88
2019-04-11T15:04:55.694Z,8.89
2019-04-11T15:06:14.617Z,8.90
2019-04-11T15:07:21.814Z,8.91
2019-04-11T15:08:48.131Z,8.92
2019-04-11T15:10:01.862Z,8.92
2019-04-11T15:11:11.483Z,8.92
2019-04-11T15:12:21.321Z,8.89
2019-04-11T15:13:31.305Z,8.88
2019-04-11T15:14:41.982Z,8.87
2019-04-11T15:16:10.848Z,8.85
2019-04-11T15:17:24.362Z,8.84
2019-04-11T15:18:33.477Z,8.82
2019-04-11T15:19:43.294Z,8.81
2019-04-11T15:20:55.291Z,8.81
2019-04-11T15:22:11.502Z,8.79
2019-04-11T15:23:21.074Z,8.79
2019-04-11T15:24:29.097Z,8.76
2019-04-11T15:25:42.939Z,8.74
2019-04-11T15:26:52.530Z,8.73
2019-04-11T15:28:08.008Z,8.71
2019-04-11T15:29:17.783Z,8.71
2019-04-11T15:30:48.521Z,8.72
2019-04-11T15:32:07.737Z,8.71
2019-04-11T15:33:20.113Z,8.73
2019-04-11T15:34:29.910Z,8.74
2019-04-11T15:35:38.077Z,8.75
2019-04-11T15:36:58.005Z,8.74
2019-04-11T15:38:24.106Z,8.72
2019-04-11T15:39:50.162Z,8.72
2019-04-11T15:40:59.690Z,8.71
2019-04-11T15:42:10.202Z,8.71
2019-04-11T15:43:27.443Z,8.72
2019-04-11T15:44:41.777Z,8.73
2019-04-11T15:45:51.487Z,8.72
2019-04-11T15:47:01.019Z,8.68
2019-04-11T15:48:08.868Z,8.69
2019-04-11T15:49:29.808Z,8.67
2019-04-11T15:50:49.345Z,8.67
2019-04-11T15:52:06.414Z,8.67
2019-04-11T15:53:13.515Z,8.67
2019-04-11T15:54:25.992Z,8.67
2019-04-11T15:55:51.715Z,8.68
2019-04-11T15:57:01.369Z,8.68
2019-04-11T15:58:12.516Z,8.69
2019-04-11T15:59:35.329Z,8.70
2019-04-11T16:00:43.864Z,8.71
2019-04-11T16:02:11.028Z,8.72
2019-04-11T16:03:19.415Z,8.74
2019-04-11T16:04:30.071Z,8.75
2019-04-11T16:05:56.503Z,8.74
2019-04-11T16:07:10.573Z,8.75
2019-04-11T16:08:21.251Z,8.76
2019-04-11T16:09:29.390Z,8.76
2019-04-11T16:10:45.373Z,8.75
2019-04-11T16:11:57.852Z,8.73
2019-04-11T16:13:23.787Z,8.72